Disclaimer

Please do not use the information listed here in-flight or in-navigation, as they are not provided to us by the airports but are provided by volunteers, so they might be outdated.

Search


Regions


Airport information page

Radio informations:
Tower (TWR) - 118.3 MHz
A/G VOICE RDO - 6559 MHz

Airport informations:
Latitude: 00° 42' 42.26" S
Longitude: 008° 45' 15.78" E
Elevation: 13 feet - 4 meters
Operating hours: Remarks
Operating agency: Civil government, landing fees and diplomatic clearance may be required
Timezone: UTC+1
Fuel: Unknown fuel type or whether there is any fuel.

Runway information:
03/21 - 6234 x 148 feet< - >1900 x 45 meters

Recent METARs:
FOOG 122300Z 21011KT 9999 TS SCT008 FEW020CB BKN026 27/25 Q1009
FOOG 122300Z 21011KT 9999 TS SCT008 FEW020CB BKN026 27/25 Q1009
FOOG 122300Z 21011KT 9999 TS SCT008 FEW020CB BKN026 27/25 Q1009

Airport on the map: